createdAt,value
2018-08-30T00:01:37.922Z,97.19
2018-08-30T00:04:42.204Z,97.67
2018-08-30T00:07:46.492Z,98.11
2018-08-30T00:10:50.745Z,97.75
2018-08-30T00:13:54.966Z,97.83
2018-08-30T00:16:59.204Z,98.01
2018-08-30T00:20:03.641Z,98.47
2018-08-30T00:23:07.906Z,99.23
2018-08-30T00:26:12.158Z,98.51
2018-08-30T00:29:16.456Z,99.63
2018-08-30T00:32:20.705Z,99.55
2018-08-30T00:35:24.981Z,99.75
2018-08-30T00:38:29.213Z,99.17
2018-08-30T00:41:33.489Z,99.86
2018-08-30T00:44:37.733Z,99.73
2018-08-30T00:47:46.057Z,100.00
2018-08-30T00:50:50.317Z,100.00
2018-08-30T00:53:54.589Z,100.00
2018-08-30T00:56:58.857Z,100.00
2018-08-30T01:00:03.116Z,100.00
2018-08-30T01:03:07.359Z,100.00
2018-08-30T01:06:11.583Z,100.00
2018-08-30T01:09:15.861Z,100.00
2018-08-30T01:12:20.166Z,100.00
2018-08-30T01:15:26.659Z,100.00
2018-08-30T01:18:30.979Z,100.00
2018-08-30T01:21:35.240Z,100.00
2018-08-30T01:24:39.498Z,100.00
2018-08-30T01:27:43.780Z,100.00
2018-08-30T01:30:48.049Z,100.00
2018-08-30T01:33:52.340Z,100.00
2018-08-30T01:36:56.622Z,100.00
2018-08-30T01:40:00.860Z,100.00
2018-08-30T01:43:05.202Z,100.00
2018-08-30T01:46:09.473Z,100.00
2018-08-30T01:49:13.777Z,100.00
2018-08-30T01:52:18.021Z,100.00
2018-08-30T01:55:22.293Z,100.00
2018-08-30T01:58:26.533Z,100.00
2018-08-30T02:01:30.760Z,100.00
2018-08-30T02:04:34.993Z,100.00
2018-08-30T02:07:39.216Z,100.00
2018-08-30T02:10:43.456Z,100.00
2018-08-30T02:13:47.720Z,100.00
2018-08-30T02:16:51.968Z,100.00
2018-08-30T02:19:56.263Z,100.00
2018-08-30T02:23:00.510Z,100.00
2018-08-30T02:26:04.790Z,100.00
2018-08-30T02:29:09.039Z,100.00
2018-08-30T02:32:13.352Z,100.00
2018-08-30T02:35:17.589Z,100.00
2018-08-30T02:38:21.848Z,100.00
2018-08-30T02:41:26.112Z,100.00
2018-08-30T02:44:30.366Z,100.00
2018-08-30T02:47:34.595Z,100.00
2018-08-30T02:50:38.808Z,100.00
2018-08-30T02:53:43.155Z,100.00
2018-08-30T02:56:47.389Z,100.00
2018-08-30T02:59:51.692Z,100.00
2018-08-30T03:02:55.953Z,100.00
2018-08-30T03:06:00.183Z,100.00
2018-08-30T03:09:05.551Z,100.00
2018-08-30T03:12:09.785Z,100.00
2018-08-30T03:15:14.993Z,100.00
2018-08-30T03:18:19.236Z,100.00
2018-08-30T03:21:23.472Z,100.00
2018-08-30T03:24:27.759Z,100.00
2018-08-30T03:27:32.044Z,100.00
2018-08-30T03:30:36.390Z,100.00
2018-08-30T03:33:40.578Z,100.00
2018-08-30T03:36:44.869Z,100.00
2018-08-30T03:39:49.252Z,100.00
2018-08-30T03:42:53.492Z,100.00
2018-08-30T03:45:57.701Z,100.00
2018-08-30T03:49:01.984Z,100.00
2018-08-30T03:52:06.268Z,100.00
2018-08-30T03:55:10.573Z,100.00
2018-08-30T03:58:14.767Z,100.00
2018-08-30T04:01:19.006Z,100.00
2018-08-30T04:04:23.255Z,100.00
2018-08-30T04:07:27.492Z,100.00
2018-08-30T04:10:31.748Z,100.00
2018-08-30T04:13:36.018Z,100.00
2018-08-30T04:16:40.244Z,100.00
2018-08-30T04:19:44.449Z,100.00
2018-08-30T04:22:48.693Z,100.00
2018-08-30T04:25:52.964Z,100.00
2018-08-30T04:28:57.218Z,100.00
2018-08-30T04:32:01.441Z,100.00
2018-08-30T04:35:05.719Z,100.00
2018-08-30T04:38:09.945Z,100.00
2018-08-30T04:41:14.217Z,100.00
2018-08-30T04:44:18.448Z,100.00
2018-08-30T04:47:22.692Z,100.00
2018-08-30T04:50:26.960Z,100.00
2018-08-30T04:53:31.161Z,100.00
2018-08-30T04:56:35.401Z,100.00
2018-08-30T04:59:39.649Z,100.00
2018-08-30T05:02:44.204Z,100.00
2018-08-30T05:05:48.467Z,100.00
2018-08-30T05:08:52.696Z,100.00
2018-08-30T05:11:56.947Z,100.00
2018-08-30T05:15:01.153Z,100.00
2018-08-30T05:18:05.370Z,100.00
2018-08-30T05:21:09.597Z,100.00
2018-08-30T05:24:13.853Z,100.00
2018-08-30T05:27:18.097Z,100.00
2018-08-30T05:30:22.332Z,100.00
2018-08-30T05:33:26.561Z,100.00
2018-08-30T05:36:30.780Z,100.00
2018-08-30T05:39:35.038Z,100.00
2018-08-30T05:42:39.236Z,100.00
2018-08-30T05:45:43.498Z,100.00
2018-08-30T05:48:47.704Z,100.00
2018-08-30T05:51:51.921Z,100.00
2018-08-30T05:54:56.180Z,100.00
2018-08-30T05:58:00.382Z,100.00
2018-08-30T06:01:04.643Z,100.00
2018-08-30T06:04:08.929Z,100.00
2018-08-30T06:07:13.393Z,100.00
2018-08-30T06:10:17.620Z,100.00
2018-08-30T06:13:21.889Z,100.00
2018-08-30T06:16:26.089Z,100.00
2018-08-30T06:19:30.405Z,100.00
2018-08-30T06:22:34.636Z,100.00
2018-08-30T06:25:38.943Z,100.00
2018-08-30T06:28:43.209Z,100.00
2018-08-30T06:31:47.466Z,100.00
2018-08-30T06:34:51.791Z,100.00
2018-08-30T06:37:55.992Z,100.00
2018-08-30T06:41:00.245Z,100.00
2018-08-30T06:44:04.504Z,100.00
2018-08-30T06:47:08.729Z,100.00
2018-08-30T06:50:12.968Z,100.00
2018-08-30T06:53:17.178Z,100.00
2018-08-30T06:56:21.456Z,100.00
2018-08-30T06:59:25.684Z,100.00
2018-08-30T07:02:29.966Z,100.00
2018-08-30T07:05:34.200Z,100.00
2018-08-30T07:08:38.436Z,100.00
2018-08-30T07:11:42.704Z,100.00
2018-08-30T07:14:46.983Z,100.00
2018-08-30T07:17:51.217Z,100.00
2018-08-30T07:20:55.454Z,100.00
2018-08-30T07:23:59.697Z,100.00
2018-08-30T07:27:03.913Z,100.00
2018-08-30T07:30:11.793Z,100.00
2018-08-30T07:33:16.083Z,100.00
2018-08-30T07:36:20.313Z,100.00
2018-08-30T07:39:24.513Z,100.00
2018-08-30T07:42:28.749Z,100.00
2018-08-30T07:45:33.005Z,100.00
2018-08-30T07:48:37.297Z,100.00
2018-08-30T07:51:41.514Z,100.00
2018-08-30T07:54:45.739Z,100.00
2018-08-30T07:57:50.016Z,100.00
2018-08-30T08:00:54.209Z,100.00
2018-08-30T08:03:58.544Z,100.00
2018-08-30T08:07:04.868Z,100.00
2018-08-30T08:10:09.225Z,100.00
2018-08-30T08:13:14.544Z,100.00
2018-08-30T08:16:18.878Z,100.00
2018-08-30T08:19:23.118Z,100.00
2018-08-30T08:22:27.428Z,100.00
2018-08-30T08:25:31.642Z,100.00
2018-08-30T08:28:35.913Z,100.00
2018-08-30T08:31:40.153Z,100.00
2018-08-30T08:34:44.385Z,100.00
2018-08-30T08:37:48.613Z,100.00
2018-08-30T08:40:52.860Z,100.00
2018-08-30T08:43:57.107Z,100.00
2018-08-30T08:47:01.374Z,100.00
2018-08-30T08:50:08.072Z,100.00
2018-08-30T08:53:13.366Z,100.00
2018-08-30T08:56:17.773Z,100.00
2018-08-30T08:59:23.397Z,100.00
2018-08-30T09:02:27.676Z,100.00
2018-08-30T09:05:32.018Z,100.00
2018-08-30T09:08:36.262Z,100.00
2018-08-30T09:11:41.029Z,100.00
2018-08-30T09:14:45.253Z,100.00
2018-08-30T09:17:49.472Z,100.00
2018-08-30T09:20:53.813Z,100.00
2018-08-30T09:23:58.069Z,100.00
2018-08-30T09:27:02.371Z,100.00
2018-08-30T09:30:06.654Z,100.00
2018-08-30T09:33:10.897Z,100.00
2018-08-30T09:36:15.129Z,100.00
2018-08-30T09:39:19.456Z,100.00
2018-08-30T09:42:23.748Z,100.00
2018-08-30T09:45:28.031Z,100.00
2018-08-30T09:48:32.229Z,100.00
2018-08-30T09:51:36.444Z,100.00
2018-08-30T09:54:40.728Z,100.00
2018-08-30T09:57:44.937Z,100.00
2018-08-30T10:00:54.532Z,100.00
2018-08-30T10:03:58.851Z,100.00
2018-08-30T10:07:03.037Z,100.00
2018-08-30T10:10:08.081Z,100.00
2018-08-30T10:13:12.376Z,100.00
2018-08-30T10:16:16.605Z,100.00
2018-08-30T10:19:20.909Z,100.00
2018-08-30T10:22:25.190Z,100.00
2018-08-30T10:25:30.197Z,100.00
2018-08-30T10:28:34.434Z,100.00
2018-08-30T10:31:38.764Z,100.00
2018-08-30T10:34:43.073Z,100.00
2018-08-30T10:37:47.429Z,100.00
2018-08-30T10:40:51.681Z,100.00
2018-08-30T10:43:56.018Z,100.00
2018-08-30T10:47:00.262Z,100.00
2018-08-30T10:50:04.540Z,100.00
2018-08-30T10:53:08.776Z,100.00
2018-08-30T10:56:13.053Z,100.00
2018-08-30T10:59:17.307Z,100.00
2018-08-30T11:02:21.872Z,100.00
2018-08-30T11:05:26.242Z,100.00
2018-08-30T11:08:30.461Z,100.00
2018-08-30T11:11:34.674Z,100.00
2018-08-30T11:14:38.910Z,100.00
2018-08-30T11:17:43.164Z,100.00
2018-08-30T11:20:47.429Z,100.00
2018-08-30T11:23:51.693Z,100.00
2018-08-30T11:26:55.909Z,100.00
2018-08-30T11:30:00.129Z,100.00
2018-08-30T11:33:04.381Z,100.00
2018-08-30T11:36:08.645Z,100.00
2018-08-30T11:39:12.885Z,100.00
2018-08-30T11:42:17.112Z,100.00
2018-08-30T11:45:21.340Z,100.00
2018-08-30T11:48:25.581Z,100.00
2018-08-30T11:51:29.849Z,100.00
2018-08-30T11:54:34.046Z,100.00
2018-08-30T11:57:38.302Z,100.00
2018-08-30T12:00:42.549Z,100.00
2018-08-30T12:03:47.124Z,100.00
2018-08-30T12:06:51.400Z,100.00
2018-08-30T12:09:56.845Z,100.00
2018-08-30T12:13:00.123Z,100.00
2018-08-30T12:16:04.344Z,100.00
2018-08-30T12:19:08.560Z,100.00
2018-08-30T12:22:12.766Z,100.00
2018-08-30T12:25:16.972Z,100.00
2018-08-30T12:28:21.236Z,100.00
2018-08-30T12:31:25.477Z,100.00
2018-08-30T12:34:29.732Z,100.00
2018-08-30T12:37:33.944Z,100.00
2018-08-30T12:40:38.160Z,100.00
2018-08-30T12:43:42.418Z,100.00
2018-08-30T12:46:46.745Z,100.00
2018-08-30T12:49:50.968Z,100.00
2018-08-30T12:52:55.267Z,100.00
2018-08-30T12:55:59.535Z,100.00
2018-08-30T12:59:08.872Z,100.00
2018-08-30T13:02:13.189Z,100.00
2018-08-30T13:05:17.594Z,100.00
2018-08-30T13:08:21.826Z,100.00
2018-08-30T13:11:26.003Z,100.00
2018-08-30T13:14:30.470Z,100.00
2018-08-30T13:17:34.635Z,100.00
2018-08-30T13:20:38.931Z,100.00
2018-08-30T13:23:43.161Z,100.00
2018-08-30T13:26:47.449Z,100.00
2018-08-30T13:29:51.772Z,100.00
2018-08-30T13:32:56.237Z,100.00
2018-08-30T13:36:00.315Z,100.00
2018-08-30T13:39:05.716Z,100.00
2018-08-30T13:42:09.912Z,100.00
2018-08-30T13:45:13.992Z,100.00
2018-08-30T13:48:18.349Z,100.00
2018-08-30T13:51:22.511Z,99.14
2018-08-30T13:54:26.840Z,99.86
2018-08-30T13:57:31.084Z,98.86
2018-08-30T14:00:35.676Z,98.37
2018-08-30T14:03:39.461Z,97.78
2018-08-30T14:06:43.616Z,97.25
2018-08-30T14:09:47.835Z,97.23
2018-08-30T14:12:52.011Z,97.04
2018-08-30T14:15:56.056Z,98.14
2018-08-30T14:19:00.283Z,97.86
2018-08-30T14:22:04.619Z,96.57
2018-08-30T14:25:08.841Z,92.83
2018-08-30T14:28:13.037Z,91.80
2018-08-30T14:31:17.281Z,87.99
2018-08-30T14:34:21.641Z,83.35
2018-08-30T14:37:25.884Z,82.45
2018-08-30T14:40:30.186Z,79.56
2018-08-30T14:43:34.356Z,77.40
2018-08-30T14:46:38.666Z,80.06
2018-08-30T14:49:42.850Z,78.57
2018-08-30T14:52:47.055Z,75.00
2018-08-30T14:55:51.236Z,70.82
2018-08-30T14:58:55.496Z,68.84
2018-08-30T15:01:59.716Z,71.16
2018-08-30T15:05:03.993Z,70.96
2018-08-30T15:08:08.138Z,67.25
2018-08-30T15:11:12.475Z,70.27
2018-08-30T15:14:16.676Z,71.69
2018-08-30T15:17:20.906Z,68.56
2018-08-30T15:20:25.167Z,70.36
2018-08-30T15:23:29.470Z,71.55
2018-08-30T15:26:33.698Z,66.47
2018-08-30T15:29:37.981Z,66.61
2018-08-30T15:32:42.198Z,64.42
2018-08-30T15:35:46.409Z,65.76
2018-08-30T15:38:50.633Z,67.48
2018-08-30T15:41:54.829Z,69.79
2018-08-30T15:44:59.073Z,69.80
2018-08-30T15:48:03.398Z,68.68
2018-08-30T15:51:07.845Z,63.96
2018-08-30T15:54:12.090Z,64.23
2018-08-30T15:57:16.328Z,63.50
2018-08-30T16:00:20.533Z,63.91
2018-08-30T16:03:24.773Z,64.69
2018-08-30T16:06:28.961Z,61.43
2018-08-30T16:09:33.174Z,61.03
2018-08-30T16:12:37.454Z,63.32
2018-08-30T16:15:41.756Z,64.36
2018-08-30T16:18:45.919Z,64.75
2018-08-30T16:21:50.207Z,64.48
2018-08-30T16:24:54.489Z,67.39
2018-08-30T16:27:58.617Z,65.90
2018-08-30T16:31:02.809Z,67.58
2018-08-30T16:34:07.095Z,68.63
2018-08-30T16:37:11.358Z,70.23
2018-08-30T16:40:15.554Z,72.26
2018-08-30T16:43:19.756Z,70.08
2018-08-30T16:46:23.964Z,69.84
2018-08-30T16:49:28.177Z,70.92
2018-08-30T16:52:32.410Z,72.24
2018-08-30T16:55:37.199Z,71.46
2018-08-30T16:58:41.148Z,71.55
2018-08-30T17:01:45.377Z,71.87
2018-08-30T17:04:49.596Z,73.27
2018-08-30T17:07:53.793Z,75.04
2018-08-30T17:10:58.018Z,75.32
2018-08-30T17:14:02.210Z,75.02
2018-08-30T17:17:06.456Z,75.49
2018-08-30T17:20:17.481Z,76.96
2018-08-30T17:23:21.720Z,76.96
2018-08-30T17:26:26.025Z,78.39
2018-08-30T17:29:30.169Z,78.71
2018-08-30T17:32:34.399Z,78.72
2018-08-30T17:35:38.645Z,78.13
2018-08-30T17:38:42.853Z,78.74
2018-08-30T17:41:47.061Z,78.70
2018-08-30T17:44:51.264Z,80.53
2018-08-30T17:47:55.514Z,79.18
2018-08-30T17:50:59.737Z,80.75
2018-08-30T17:54:03.924Z,82.22
2018-08-30T17:57:08.148Z,82.09
2018-08-30T18:00:13.587Z,82.31
2018-08-30T18:03:17.813Z,82.76
2018-08-30T18:06:22.028Z,82.64
2018-08-30T18:09:26.249Z,82.62
2018-08-30T18:12:30.506Z,83.86
2018-08-30T18:15:34.720Z,83.19
2018-08-30T18:18:38.920Z,84.62
2018-08-30T18:21:43.172Z,85.03
2018-08-30T18:24:47.379Z,84.40
2018-08-30T18:27:51.630Z,84.90
2018-08-30T18:30:55.817Z,85.25
2018-08-30T18:34:00.113Z,84.90
2018-08-30T18:37:04.322Z,85.00
2018-08-30T18:40:09.449Z,85.36
2018-08-30T18:43:13.674Z,84.56
2018-08-30T18:46:17.979Z,83.56
2018-08-30T18:49:22.194Z,84.15
2018-08-30T18:52:26.417Z,83.77
2018-08-30T18:55:30.673Z,84.09
2018-08-30T18:58:34.877Z,83.84
2018-08-30T19:01:39.075Z,84.48
2018-08-30T19:04:43.361Z,84.04
2018-08-30T19:07:47.608Z,84.17
2018-08-30T19:10:51.900Z,83.68
2018-08-30T19:13:56.110Z,84.02
2018-08-30T19:17:05.556Z,84.43
2018-08-30T19:20:09.774Z,84.11
2018-08-30T19:23:13.977Z,84.17
2018-08-30T19:26:18.325Z,84.04
2018-08-30T19:29:22.524Z,84.79
2018-08-30T19:32:26.747Z,84.81
2018-08-30T19:35:36.149Z,85.55
2018-08-30T19:38:40.363Z,86.78
2018-08-30T19:41:44.589Z,85.57
2018-08-30T19:44:48.821Z,86.88
2018-08-30T19:47:53.009Z,87.25
2018-08-30T19:50:57.222Z,87.63
2018-08-30T19:54:01.430Z,87.54
2018-08-30T19:57:05.684Z,87.79
2018-08-30T20:00:09.904Z,87.73
2018-08-30T20:03:14.120Z,89.03
2018-08-30T20:06:18.297Z,89.27
2018-08-30T20:09:22.594Z,90.41
2018-08-30T20:12:26.739Z,90.37
2018-08-30T20:15:30.960Z,90.53
2018-08-30T20:18:35.208Z,90.40
2018-08-30T20:21:39.424Z,90.55
2018-08-30T20:24:44.520Z,90.51
2018-08-30T20:27:48.771Z,90.72
2018-08-30T20:30:52.986Z,91.06
2018-08-30T20:33:57.212Z,91.18
2018-08-30T20:37:01.436Z,92.02
2018-08-30T20:40:05.665Z,91.21
2018-08-30T20:43:09.878Z,92.18
2018-08-30T20:46:14.107Z,92.37
2018-08-30T20:49:18.327Z,91.22
2018-08-30T20:52:22.540Z,91.99
2018-08-30T20:55:26.789Z,92.79
2018-08-30T20:58:30.976Z,92.90
2018-08-30T21:01:35.233Z,92.83
2018-08-30T21:04:39.448Z,93.62
2018-08-30T21:07:43.648Z,93.95
2018-08-30T21:10:47.870Z,93.89
2018-08-30T21:13:52.068Z,94.32
2018-08-30T21:16:56.273Z,94.65
2018-08-30T21:20:00.501Z,94.70
2018-08-30T21:23:04.809Z,94.99
2018-08-30T21:26:09.516Z,94.79
2018-08-30T21:29:13.720Z,94.72
2018-08-30T21:32:17.921Z,94.19
2018-08-30T21:35:22.156Z,94.50
2018-08-30T21:38:26.361Z,94.22
2018-08-30T21:41:30.585Z,94.50
2018-08-30T21:44:34.793Z,93.81
2018-08-30T21:47:39.020Z,93.92
2018-08-30T21:50:43.233Z,93.59
2018-08-30T21:53:47.445Z,93.92
2018-08-30T21:56:51.657Z,93.21
2018-08-30T21:59:55.874Z,93.25
2018-08-30T22:03:00.100Z,92.85
2018-08-30T22:06:04.316Z,93.28
2018-08-30T22:09:10.677Z,93.14
2018-08-30T22:12:14.868Z,93.66
2018-08-30T22:15:19.077Z,93.28
2018-08-30T22:18:23.294Z,94.34
2018-08-30T22:21:27.492Z,93.60
2018-08-30T22:24:31.684Z,94.01
2018-08-30T22:27:35.903Z,93.60
2018-08-30T22:30:40.129Z,94.01
2018-08-30T22:33:44.350Z,94.05
2018-08-30T22:36:48.572Z,94.06
2018-08-30T22:39:52.795Z,94.13
2018-08-30T22:42:57.021Z,94.34
2018-08-30T22:46:01.240Z,93.88
2018-08-30T22:49:05.625Z,94.33
2018-08-30T22:52:09.851Z,94.15
2018-08-30T22:55:14.062Z,94.52
2018-08-30T22:58:18.292Z,94.19
2018-08-30T23:01:22.492Z,94.71
2018-08-30T23:04:26.740Z,94.13
2018-08-30T23:07:30.937Z,94.08
2018-08-30T23:10:35.148Z,95.22
2018-08-30T23:13:39.357Z,94.69
2018-08-30T23:16:43.573Z,95.53
2018-08-30T23:19:47.792Z,95.10
2018-08-30T23:22:52.049Z,95.18
2018-08-30T23:25:56.290Z,95.63
2018-08-30T23:29:00.489Z,95.04
2018-08-30T23:32:04.741Z,95.42
2018-08-30T23:35:08.941Z,94.97
2018-08-30T23:38:13.141Z,95.20
2018-08-30T23:41:17.344Z,95.15
2018-08-30T23:44:21.561Z,95.01
2018-08-30T23:47:25.780Z,95.04
2018-08-30T23:50:29.976Z,95.04
2018-08-30T23:53:34.172Z,94.99
2018-08-30T23:56:38.379Z,95.76
2018-08-30T23:59:59.580Z,95.16
